sensor_id;sensor_type;location;lat;lon;timestamp;P1;durP1;ratioP1;P2;durP2;ratioP2
75437;SDS011;64015;49.392;15.582;2023-04-16T00:01:10;9.27;;;4.78;;
75437;SDS011;64015;49.392;15.582;2023-04-16T00:03:36;9.35;;;5.68;;
75437;SDS011;64015;49.392;15.582;2023-04-16T00:06:02;9.18;;;4.88;;
75437;SDS011;64015;49.392;15.582;2023-04-16T00:08:27;7.78;;;4.50;;
75437;SDS011;64015;49.392;15.582;2023-04-16T00:10:53;9.05;;;5.13;;
75437;SDS011;64015;49.392;15.582;2023-04-16T00:13:19;9.75;;;6.35;;
75437;SDS011;64015;49.392;15.582;2023-04-16T00:15:45;7.78;;;4.88;;
75437;SDS011;64015;49.392;15.582;2023-04-16T00:18:10;8.10;;;4.70;;
75437;SDS011;64015;49.392;15.582;2023-04-16T00:20:39;10.50;;;6.25;;
75437;SDS011;64015;49.392;15.582;2023-04-16T00:23:04;9.75;;;6.40;;
75437;SDS011;64015;49.392;15.582;2023-04-16T00:25:30;10.15;;;6.15;;
75437;SDS011;64015;49.392;15.582;2023-04-16T00:27:56;11.35;;;6.57;;
75437;SDS011;64015;49.392;15.582;2023-04-16T00:30:21;12.48;;;5.85;;
75437;SDS011;64015;49.392;15.582;2023-04-16T00:32:47;12.02;;;7.30;;
75437;SDS011;64015;49.392;15.582;2023-04-16T00:35:13;10.40;;;6.15;;
75437;SDS011;64015;49.392;15.582;2023-04-16T00:37:38;14.10;;;7.75;;
75437;SDS011;64015;49.392;15.582;2023-04-16T00:40:04;12.75;;;6.70;;
75437;SDS011;64015;49.392;15.582;2023-04-16T00:42:30;13.98;;;7.93;;
75437;SDS011;64015;49.392;15.582;2023-04-16T00:44:56;13.95;;;8.18;;
75437;SDS011;64015;49.392;15.582;2023-04-16T00:47:22;16.48;;;8.43;;
75437;SDS011;64015;49.392;15.582;2023-04-16T00:49:48;15.15;;;8.02;;
75437;SDS011;64015;49.392;15.582;2023-04-16T00:52:14;12.98;;;6.90;;
75437;SDS011;64015;49.392;15.582;2023-04-16T00:54:40;14.05;;;7.65;;
75437;SDS011;64015;49.392;15.582;2023-04-16T00:57:06;15.32;;;8.02;;
75437;SDS011;64015;49.392;15.582;2023-04-16T00:59:31;14.30;;;8.23;;
75437;SDS011;64015;49.392;15.582;2023-04-16T01:01:57;16.25;;;8.10;;
75437;SDS011;64015;49.392;15.582;2023-04-16T01:04:23;11.77;;;7.60;;
75437;SDS011;64015;49.392;15.582;2023-04-16T01:06:48;14.85;;;7.65;;
75437;SDS011;64015;49.392;15.582;2023-04-16T01:09:15;14.18;;;8.07;;
75437;SDS011;64015;49.392;15.582;2023-04-16T01:11:41;17.92;;;8.13;;
75437;SDS011;64015;49.392;15.582;2023-04-16T01:14:06;13.38;;;7.28;;
75437;SDS011;64015;49.392;15.582;2023-04-16T01:16:32;11.38;;;6.57;;
75437;SDS011;64015;49.392;15.582;2023-04-16T01:18:58;12.45;;;7.75;;
75437;SDS011;64015;49.392;15.582;2023-04-16T01:21:24;12.75;;;7.18;;
75437;SDS011;64015;49.392;15.582;2023-04-16T01:23:50;13.25;;;7.80;;
75437;SDS011;64015;49.392;15.582;2023-04-16T01:26:16;12.52;;;7.22;;
75437;SDS011;64015;49.392;15.582;2023-04-16T01:28:41;14.70;;;7.70;;
75437;SDS011;64015;49.392;15.582;2023-04-16T01:31:07;14.50;;;7.80;;
75437;SDS011;64015;49.392;15.582;2023-04-16T01:33:33;13.60;;;7.65;;
75437;SDS011;64015;49.392;15.582;2023-04-16T01:35:59;11.13;;;7.00;;
75437;SDS011;64015;49.392;15.582;2023-04-16T01:38:24;11.43;;;6.80;;
75437;SDS011;64015;49.392;15.582;2023-04-16T01:40:54;13.20;;;7.05;;
75437;SDS011;64015;49.392;15.582;2023-04-16T01:43:21;12.23;;;7.47;;
75437;SDS011;64015;49.392;15.582;2023-04-16T01:45:47;13.75;;;7.53;;
75437;SDS011;64015;49.392;15.582;2023-04-16T01:48:12;15.45;;;8.32;;
75437;SDS011;64015;49.392;15.582;2023-04-16T01:50:38;13.80;;;8.15;;
75437;SDS011;64015;49.392;15.582;2023-04-16T01:53:04;14.50;;;7.18;;
75437;SDS011;64015;49.392;15.582;2023-04-16T01:55:31;12.32;;;7.60;;
75437;SDS011;64015;49.392;15.582;2023-04-16T01:57:59;14.57;;;7.93;;
75437;SDS011;64015;49.392;15.582;2023-04-16T02:00:25;13.88;;;7.53;;
75437;SDS011;64015;49.392;15.582;2023-04-16T02:02:50;12.73;;;7.70;;
75437;SDS011;64015;49.392;15.582;2023-04-16T02:05:16;14.82;;;7.78;;
75437;SDS011;64015;49.392;15.582;2023-04-16T02:07:42;12.65;;;8.02;;
75437;SDS011;64015;49.392;15.582;2023-04-16T02:10:08;14.60;;;9.02;;
75437;SDS011;64015;49.392;15.582;2023-04-16T02:12:34;16.15;;;8.35;;
75437;SDS011;64015;49.392;15.582;2023-04-16T02:15:00;11.20;;;7.22;;
75437;SDS011;64015;49.392;15.582;2023-04-16T02:17:26;13.65;;;8.45;;
75437;SDS011;64015;49.392;15.582;2023-04-16T02:19:52;14.30;;;7.95;;
75437;SDS011;64015;49.392;15.582;2023-04-16T02:22:18;14.27;;;8.43;;
75437;SDS011;64015;49.392;15.582;2023-04-16T02:24:44;14.70;;;7.70;;
75437;SDS011;64015;49.392;15.582;2023-04-16T02:27:09;15.60;;;9.27;;
75437;SDS011;64015;49.392;15.582;2023-04-16T02:29:35;14.25;;;7.93;;
75437;SDS011;64015;49.392;15.582;2023-04-16T02:32:01;16.85;;;9.63;;
75437;SDS011;64015;49.392;15.582;2023-04-16T02:34:26;17.10;;;9.85;;
75437;SDS011;64015;49.392;15.582;2023-04-16T02:36:52;16.85;;;8.98;;
75437;SDS011;64015;49.392;15.582;2023-04-16T02:39:19;15.38;;;9.15;;
75437;SDS011;64015;49.392;15.582;2023-04-16T02:41:45;15.00;;;9.55;;
75437;SDS011;64015;49.392;15.582;2023-04-16T02:44:10;16.30;;;8.65;;
75437;SDS011;64015;49.392;15.582;2023-04-16T02:46:36;15.88;;;9.15;;
75437;SDS011;64015;49.392;15.582;2023-04-16T02:49:02;16.30;;;8.93;;
75437;SDS011;64015;49.392;15.582;2023-04-16T02:51:27;14.32;;;9.38;;
75437;SDS011;64015;49.392;15.582;2023-04-16T02:53:53;14.63;;;8.38;;
75437;SDS011;64015;49.392;15.582;2023-04-16T02:56:19;15.07;;;9.52;;
75437;SDS011;64015;49.392;15.582;2023-04-16T02:58:45;13.40;;;8.98;;
75437;SDS011;64015;49.392;15.582;2023-04-16T03:01:10;16.40;;;8.80;;
75437;SDS011;64015;49.392;15.582;2023-04-16T03:03:36;14.82;;;7.97;;
75437;SDS011;64015;49.392;15.582;2023-04-16T03:06:02;14.20;;;8.57;;
75437;SDS011;64015;49.392;15.582;2023-04-16T03:08:28;16.23;;;9.00;;
75437;SDS011;64015;49.392;15.582;2023-04-16T03:10:53;16.95;;;8.95;;
75437;SDS011;64015;49.392;15.582;2023-04-16T03:13:19;16.25;;;9.07;;
75437;SDS011;64015;49.392;15.582;2023-04-16T03:15:48;16.20;;;9.80;;
75437;SDS011;64015;49.392;15.582;2023-04-16T03:18:14;16.88;;;8.90;;
75437;SDS011;64015;49.392;15.582;2023-04-16T03:20:40;16.35;;;9.63;;
75437;SDS011;64015;49.392;15.582;2023-04-16T03:23:06;15.02;;;9.35;;
75437;SDS011;64015;49.392;15.582;2023-04-16T03:25:31;16.15;;;8.55;;
75437;SDS011;64015;49.392;15.582;2023-04-16T03:27:57;15.95;;;8.68;;
75437;SDS011;64015;49.392;15.582;2023-04-16T03:30:22;16.50;;;8.98;;
75437;SDS011;64015;49.392;15.582;2023-04-16T03:32:48;16.23;;;9.43;;
75437;SDS011;64015;49.392;15.582;2023-04-16T03:35:14;16.33;;;9.05;;
75437;SDS011;64015;49.392;15.582;2023-04-16T03:37:40;16.77;;;9.68;;
75437;SDS011;64015;49.392;15.582;2023-04-16T03:40:05;17.52;;;9.35;;
75437;SDS011;64015;49.392;15.582;2023-04-16T03:42:33;16.45;;;9.35;;
75437;SDS011;64015;49.392;15.582;2023-04-16T03:44:58;14.20;;;8.70;;
75437;SDS011;64015;49.392;15.582;2023-04-16T03:47:25;16.98;;;10.05;;
75437;SDS011;64015;49.392;15.582;2023-04-16T03:49:50;16.77;;;8.48;;
75437;SDS011;64015;49.392;15.582;2023-04-16T03:52:16;18.75;;;11.00;;
75437;SDS011;64015;49.392;15.582;2023-04-16T03:54:42;16.13;;;9.25;;
75437;SDS011;64015;49.392;15.582;2023-04-16T03:57:08;17.42;;;9.40;;
75437;SDS011;64015;49.392;15.582;2023-04-16T03:59:33;16.10;;;9.20;;
75437;SDS011;64015;49.392;15.582;2023-04-16T04:01:59;15.35;;;9.27;;
75437;SDS011;64015;49.392;15.582;2023-04-16T04:04:24;17.00;;;9.75;;
75437;SDS011;64015;49.392;15.582;2023-04-16T04:06:50;18.85;;;10.25;;
75437;SDS011;64015;49.392;15.582;2023-04-16T04:09:16;18.27;;;10.07;;
75437;SDS011;64015;49.392;15.582;2023-04-16T04:11:41;17.60;;;8.93;;
75437;SDS011;64015;49.392;15.582;2023-04-16T04:14:07;16.08;;;9.05;;
75437;SDS011;64015;49.392;15.582;2023-04-16T04:16:33;16.58;;;9.30;;
75437;SDS011;64015;49.392;15.582;2023-04-16T04:18:59;18.75;;;9.90;;
75437;SDS011;64015;49.392;15.582;2023-04-16T04:21:26;17.63;;;10.25;;
75437;SDS011;64015;49.392;15.582;2023-04-16T04:23:53;17.92;;;10.13;;
75437;SDS011;64015;49.392;15.582;2023-04-16T04:26:19;16.55;;;10.35;;
75437;SDS011;64015;49.392;15.582;2023-04-16T04:28:45;19.05;;;10.90;;
75437;SDS011;64015;49.392;15.582;2023-04-16T04:31:11;20.35;;;10.85;;
75437;SDS011;64015;49.392;15.582;2023-04-16T04:33:37;18.40;;;9.85;;
75437;SDS011;64015;49.392;15.582;2023-04-16T04:36:03;19.02;;;10.85;;
75437;SDS011;64015;49.392;15.582;2023-04-16T04:38:29;16.77;;;10.45;;
75437;SDS011;64015;49.392;15.582;2023-04-16T04:40:55;18.45;;;9.60;;
75437;SDS011;64015;49.392;15.582;2023-04-16T04:43:22;18.80;;;10.25;;
75437;SDS011;64015;49.392;15.582;2023-04-16T04:48:14;21.17;;;11.77;;
75437;SDS011;64015;49.392;15.582;2023-04-16T04:50:41;17.25;;;10.52;;
75437;SDS011;64015;49.392;15.582;2023-04-16T04:53:07;19.73;;;11.85;;
75437;SDS011;64015;49.392;15.582;2023-04-16T04:55:36;23.45;;;12.30;;
75437;SDS011;64015;49.392;15.582;2023-04-16T04:58:03;21.65;;;11.98;;
75437;SDS011;64015;49.392;15.582;2023-04-16T05:00:30;20.17;;;12.15;;
75437;SDS011;64015;49.392;15.582;2023-04-16T05:02:56;19.38;;;12.15;;
75437;SDS011;64015;49.392;15.582;2023-04-16T05:05:21;23.05;;;12.20;;
75437;SDS011;64015;49.392;15.582;2023-04-16T05:07:47;18.55;;;11.27;;
75437;SDS011;64015;49.392;15.582;2023-04-16T05:10:13;20.95;;;10.77;;
75437;SDS011;64015;49.392;15.582;2023-04-16T05:12:38;17.20;;;10.57;;
75437;SDS011;64015;49.392;15.582;2023-04-16T05:15:04;16.75;;;10.25;;
75437;SDS011;64015;49.392;15.582;2023-04-16T05:17:30;18.70;;;9.65;;
75437;SDS011;64015;49.392;15.582;2023-04-16T05:19:56;16.45;;;9.82;;
75437;SDS011;64015;49.392;15.582;2023-04-16T05:22:21;16.10;;;10.45;;
75437;SDS011;64015;49.392;15.582;2023-04-16T05:24:47;15.60;;;9.38;;
75437;SDS011;64015;49.392;15.582;2023-04-16T05:27:13;15.55;;;9.23;;
75437;SDS011;64015;49.392;15.582;2023-04-16T05:29:39;18.10;;;9.95;;
75437;SDS011;64015;49.392;15.582;2023-04-16T05:32:04;16.58;;;10.35;;
75437;SDS011;64015;49.392;15.582;2023-04-16T05:34:30;19.58;;;10.63;;
75437;SDS011;64015;49.392;15.582;2023-04-16T05:36:56;18.63;;;9.35;;
75437;SDS011;64015;49.392;15.582;2023-04-16T05:39:21;19.00;;;10.77;;
75437;SDS011;64015;49.392;15.582;2023-04-16T05:41:47;17.75;;;9.52;;
75437;SDS011;64015;49.392;15.582;2023-04-16T05:44:13;18.33;;;10.30;;
75437;SDS011;64015;49.392;15.582;2023-04-16T05:46:39;20.75;;;11.15;;
75437;SDS011;64015;49.392;15.582;2023-04-16T05:49:05;16.50;;;10.77;;
75437;SDS011;64015;49.392;15.582;2023-04-16T05:51:31;19.70;;;12.10;;
75437;SDS011;64015;49.392;15.582;2023-04-16T05:53:56;17.30;;;10.48;;
75437;SDS011;64015;49.392;15.582;2023-04-16T05:56:22;17.05;;;10.38;;
75437;SDS011;64015;49.392;15.582;2023-04-16T05:58:48;18.17;;;9.73;;
75437;SDS011;64015;49.392;15.582;2023-04-16T06:01:13;18.13;;;10.70;;
75437;SDS011;64015;49.392;15.582;2023-04-16T06:03:39;17.00;;;10.52;;
75437;SDS011;64015;49.392;15.582;2023-04-16T06:06:04;18.27;;;10.50;;
75437;SDS011;64015;49.392;15.582;2023-04-16T06:08:30;18.95;;;10.13;;
75437;SDS011;64015;49.392;15.582;2023-04-16T06:10:56;15.73;;;9.68;;
75437;SDS011;64015;49.392;15.582;2023-04-16T06:13:31;17.55;;;9.27;;
75437;SDS011;64015;49.392;15.582;2023-04-16T06:15:57;17.98;;;10.27;;
75437;SDS011;64015;49.392;15.582;2023-04-16T06:18:23;16.60;;;9.55;;
75437;SDS011;64015;49.392;15.582;2023-04-16T06:20:48;16.95;;;9.88;;
75437;SDS011;64015;49.392;15.582;2023-04-16T06:23:15;14.88;;;8.88;;
75437;SDS011;64015;49.392;15.582;2023-04-16T06:25:40;13.15;;;7.85;;
75437;SDS011;64015;49.392;15.582;2023-04-16T06:28:06;16.77;;;9.45;;
75437;SDS011;64015;49.392;15.582;2023-04-16T06:30:32;14.75;;;8.73;;
75437;SDS011;64015;49.392;15.582;2023-04-16T06:32:58;12.70;;;8.70;;
75437;SDS011;64015;49.392;15.582;2023-04-16T06:35:23;13.40;;;8.70;;
75437;SDS011;64015;49.392;15.582;2023-04-16T06:37:49;14.02;;;7.25;;
75437;SDS011;64015;49.392;15.582;2023-04-16T06:40:15;14.32;;;8.65;;
75437;SDS011;64015;49.392;15.582;2023-04-16T06:42:41;13.93;;;8.57;;
75437;SDS011;64015;49.392;15.582;2023-04-16T06:45:07;13.30;;;8.48;;
75437;SDS011;64015;49.392;15.582;2023-04-16T06:47:33;14.10;;;8.45;;
75437;SDS011;64015;49.392;15.582;2023-04-16T06:49:59;18.33;;;9.00;;
75437;SDS011;64015;49.392;15.582;2023-04-16T06:52:25;16.75;;;9.27;;
75437;SDS011;64015;49.392;15.582;2023-04-16T06:54:51;14.75;;;8.27;;
75437;SDS011;64015;49.392;15.582;2023-04-16T06:57:17;12.63;;;7.53;;
75437;SDS011;64015;49.392;15.582;2023-04-16T06:59:42;16.63;;;9.93;;
75437;SDS011;64015;49.392;15.582;2023-04-16T07:02:08;18.75;;;12.52;;
75437;SDS011;64015;49.392;15.582;2023-04-16T07:04:34;19.33;;;11.43;;
75437;SDS011;64015;49.392;15.582;2023-04-16T07:07:00;17.98;;;11.18;;
75437;SDS011;64015;49.392;15.582;2023-04-16T07:09:26;17.30;;;9.77;;
75437;SDS011;64015;49.392;15.582;2023-04-16T07:11:52;16.65;;;10.15;;
75437;SDS011;64015;49.392;15.582;2023-04-16T07:14:18;18.58;;;10.10;;
75437;SDS011;64015;49.392;15.582;2023-04-16T07:16:44;20.23;;;11.23;;
75437;SDS011;64015;49.392;15.582;2023-04-16T07:19:12;20.35;;;12.07;;
75437;SDS011;64015;49.392;15.582;2023-04-16T07:21:38;16.73;;;9.93;;
75437;SDS011;64015;49.392;15.582;2023-04-16T07:24:06;16.17;;;9.30;;
75437;SDS011;64015;49.392;15.582;2023-04-16T07:26:32;15.70;;;9.07;;
75437;SDS011;64015;49.392;15.582;2023-04-16T07:28:57;16.77;;;9.85;;
75437;SDS011;64015;49.392;15.582;2023-04-16T07:31:23;16.83;;;9.90;;
75437;SDS011;64015;49.392;15.582;2023-04-16T07:33:48;15.43;;;8.43;;
75437;SDS011;64015;49.392;15.582;2023-04-16T07:36:14;13.55;;;8.23;;
75437;SDS011;64015;49.392;15.582;2023-04-16T07:38:40;13.93;;;9.25;;
75437;SDS011;64015;49.392;15.582;2023-04-16T07:41:06;18.13;;;9.85;;
75437;SDS011;64015;49.392;15.582;2023-04-16T07:43:32;17.63;;;10.77;;
75437;SDS011;64015;49.392;15.582;2023-04-16T07:45:58;14.98;;;9.80;;
75437;SDS011;64015;49.392;15.582;2023-04-16T07:48:23;14.25;;;9.82;;
75437;SDS011;64015;49.392;15.582;2023-04-16T07:50:49;14.55;;;8.75;;
75437;SDS011;64015;49.392;15.582;2023-04-16T07:53:15;15.27;;;8.00;;
75437;SDS011;64015;49.392;15.582;2023-04-16T07:55:41;13.52;;;8.02;;
75437;SDS011;64015;49.392;15.582;2023-04-16T07:58:06;13.20;;;7.85;;
75437;SDS011;64015;49.392;15.582;2023-04-16T08:00:34;11.20;;;6.55;;
75437;SDS011;64015;49.392;15.582;2023-04-16T08:03:00;10.90;;;6.55;;
75437;SDS011;64015;49.392;15.582;2023-04-16T08:05:26;12.55;;;7.53;;
75437;SDS011;64015;49.392;15.582;2023-04-16T08:07:55;11.68;;;7.70;;
75437;SDS011;64015;49.392;15.582;2023-04-16T08:10:20;11.38;;;7.22;;
75437;SDS011;64015;49.392;15.582;2023-04-16T08:12:46;10.73;;;6.00;;
75437;SDS011;64015;49.392;15.582;2023-04-16T08:15:12;8.43;;;6.10;;
75437;SDS011;64015;49.392;15.582;2023-04-16T08:17:38;10.63;;;6.47;;
75437;SDS011;64015;49.392;15.582;2023-04-16T08:20:04;9.45;;;5.78;;
75437;SDS011;64015;49.392;15.582;2023-04-16T08:22:31;7.88;;;4.90;;
75437;SDS011;64015;49.392;15.582;2023-04-16T08:25:04;7.70;;;5.15;;
75437;SDS011;64015;49.392;15.582;2023-04-16T08:27:30;9.65;;;5.35;;
75437;SDS011;64015;49.392;15.582;2023-04-16T08:29:55;7.38;;;4.63;;
75437;SDS011;64015;49.392;15.582;2023-04-16T08:32:21;6.22;;;4.63;;
75437;SDS011;64015;49.392;15.582;2023-04-16T08:34:47;6.68;;;3.90;;
75437;SDS011;64015;49.392;15.582;2023-04-16T08:37:12;7.25;;;4.28;;
75437;SDS011;64015;49.392;15.582;2023-04-16T08:39:38;6.55;;;3.80;;
75437;SDS011;64015;49.392;15.582;2023-04-16T08:42:04;7.32;;;4.50;;
75437;SDS011;64015;49.392;15.582;2023-04-16T08:44:35;5.72;;;3.90;;
75437;SDS011;64015;49.392;15.582;2023-04-16T08:47:05;6.57;;;3.70;;
75437;SDS011;64015;49.392;15.582;2023-04-16T08:49:34;6.93;;;4.10;;
75437;SDS011;64015;49.392;15.582;2023-04-16T08:52:04;6.38;;;5.03;;
75437;SDS011;64015;49.392;15.582;2023-04-16T08:54:33;6.60;;;4.45;;
75437;SDS011;64015;49.392;15.582;2023-04-16T08:57:01;6.18;;;3.97;;
75437;SDS011;64015;49.392;15.582;2023-04-16T08:59:30;7.75;;;4.50;;
75437;SDS011;64015;49.392;15.582;2023-04-16T09:01:57;7.68;;;5.00;;
75437;SDS011;64015;49.392;15.582;2023-04-16T09:04:27;7.20;;;4.30;;
75437;SDS011;64015;49.392;15.582;2023-04-16T09:06:57;6.20;;;4.47;;
75437;SDS011;64015;49.392;15.582;2023-04-16T09:09:26;8.05;;;5.38;;
75437;SDS011;64015;49.392;15.582;2023-04-16T09:11:55;6.95;;;4.30;;
75437;SDS011;64015;49.392;15.582;2023-04-16T09:14:21;7.10;;;4.72;;
75437;SDS011;64015;49.392;15.582;2023-04-16T09:16:47;7.03;;;3.60;;
75437;SDS011;64015;49.392;15.582;2023-04-16T09:19:14;5.75;;;3.72;;
75437;SDS011;64015;49.392;15.582;2023-04-16T09:21:40;6.18;;;3.90;;
75437;SDS011;64015;49.392;15.582;2023-04-16T09:24:07;6.53;;;4.15;;
75437;SDS011;64015;49.392;15.582;2023-04-16T09:26:34;5.68;;;3.95;;
75437;SDS011;64015;49.392;15.582;2023-04-16T09:29:01;5.65;;;3.72;;
75437;SDS011;64015;49.392;15.582;2023-04-16T09:31:27;4.55;;;3.33;;
75437;SDS011;64015;49.392;15.582;2023-04-16T09:34:02;5.22;;;3.00;;
75437;SDS011;64015;49.392;15.582;2023-04-16T09:36:33;5.97;;;3.47;;
75437;SDS011;64015;49.392;15.582;2023-04-16T09:39:01;6.93;;;3.42;;
75437;SDS011;64015;49.392;15.582;2023-04-16T09:43:55;4.75;;;2.90;;
75437;SDS011;64015;49.392;15.582;2023-04-16T09:46:32;5.13;;;3.22;;
75437;SDS011;64015;49.392;15.582;2023-04-16T09:49:09;4.60;;;3.20;;
75437;SDS011;64015;49.392;15.582;2023-04-16T09:51:45;4.15;;;2.95;;
75437;SDS011;64015;49.392;15.582;2023-04-16T09:54:15;4.32;;;3.00;;
75437;SDS011;64015;49.392;15.582;2023-04-16T09:56:44;4.60;;;2.72;;
75437;SDS011;64015;49.392;15.582;2023-04-16T09:59:20;11.82;;;6.45;;
75437;SDS011;64015;49.392;15.582;2023-04-16T10:01:47;6.80;;;3.42;;
75437;SDS011;64015;49.392;15.582;2023-04-16T10:04:14;5.50;;;2.95;;
75437;SDS011;64015;49.392;15.582;2023-04-16T10:06:42;4.18;;;2.60;;
75437;SDS011;64015;49.392;15.582;2023-04-16T10:09:09;4.55;;;2.97;;
75437;SDS011;64015;49.392;15.582;2023-04-16T10:11:35;4.95;;;2.97;;
75437;SDS011;64015;49.392;15.582;2023-04-16T10:16:28;3.75;;;2.50;;
75437;SDS011;64015;49.392;15.582;2023-04-16T10:18:54;4.53;;;2.40;;
75437;SDS011;64015;49.392;15.582;2023-04-16T10:21:21;4.10;;;2.67;;
75437;SDS011;64015;49.392;15.582;2023-04-16T10:23:47;3.08;;;2.13;;
75437;SDS011;64015;49.392;15.582;2023-04-16T10:29:34;4.57;;;2.30;;
75437;SDS011;64015;49.392;15.582;2023-04-16T10:32:01;3.78;;;2.50;;
75437;SDS011;64015;49.392;15.582;2023-04-16T10:34:27;6.45;;;2.83;;
75437;SDS011;64015;49.392;15.582;2023-04-16T10:36:55;4.25;;;2.20;;
75437;SDS011;64015;49.392;15.582;2023-04-16T10:39:22;4.85;;;2.65;;
75437;SDS011;64015;49.392;15.582;2023-04-16T10:41:49;3.22;;;2.10;;
75437;SDS011;64015;49.392;15.582;2023-04-16T10:44:16;4.10;;;2.38;;
75437;SDS011;64015;49.392;15.582;2023-04-16T10:46:44;4.10;;;2.15;;
75437;SDS011;64015;49.392;15.582;2023-04-16T10:49:17;4.35;;;2.67;;
75437;SDS011;64015;49.392;15.582;2023-04-16T10:51:54;2.90;;;2.20;;
75437;SDS011;64015;49.392;15.582;2023-04-16T10:56:51;4.85;;;2.90;;
75437;SDS011;64015;49.392;15.582;2023-04-16T10:59:18;3.53;;;2.33;;
75437;SDS011;64015;49.392;15.582;2023-04-16T11:01:47;4.63;;;2.30;;
75437;SDS011;64015;49.392;15.582;2023-04-16T11:12:14;3.28;;;1.58;;
75437;SDS011;64015;49.392;15.582;2023-04-16T11:14:45;2.95;;;1.77;;
75437;SDS011;64015;49.392;15.582;2023-04-16T11:17:16;3.13;;;1.40;;
75437;SDS011;64015;49.392;15.582;2023-04-16T11:19:43;3.10;;;2.00;;
75437;SDS011;64015;49.392;15.582;2023-04-16T11:22:13;3.95;;;2.33;;
75437;SDS011;64015;49.392;15.582;2023-04-16T11:24:42;3.08;;;1.77;;
75437;SDS011;64015;49.392;15.582;2023-04-16T11:27:10;2.97;;;2.03;;
75437;SDS011;64015;49.392;15.582;2023-04-16T11:29:37;2.90;;;1.90;;
75437;SDS011;64015;49.392;15.582;2023-04-16T11:32:03;3.85;;;2.33;;
75437;SDS011;64015;49.392;15.582;2023-04-16T11:34:29;2.75;;;1.85;;
75437;SDS011;64015;49.392;15.582;2023-04-16T11:36:55;3.08;;;1.75;;
75437;SDS011;64015;49.392;15.582;2023-04-16T11:39:21;3.53;;;1.70;;
75437;SDS011;64015;49.392;15.582;2023-04-16T11:41:48;3.83;;;2.10;;
75437;SDS011;64015;49.392;15.582;2023-04-16T11:44:17;2.75;;;1.70;;
75437;SDS011;64015;49.392;15.582;2023-04-16T11:46:43;3.78;;;2.00;;
75437;SDS011;64015;49.392;15.582;2023-04-16T11:49:08;3.33;;;2.30;;
75437;SDS011;64015;49.392;15.582;2023-04-16T11:51:40;4.00;;;2.25;;
75437;SDS011;64015;49.392;15.582;2023-04-16T11:54:07;4.72;;;3.03;;
75437;SDS011;64015;49.392;15.582;2023-04-16T11:56:34;4.45;;;2.80;;
75437;SDS011;64015;49.392;15.582;2023-04-16T12:01:39;4.03;;;2.00;;
75437;SDS011;64015;49.392;15.582;2023-04-16T12:04:06;3.40;;;2.40;;
75437;SDS011;64015;49.392;15.582;2023-04-16T12:06:32;5.03;;;2.47;;
75437;SDS011;64015;49.392;15.582;2023-04-16T12:08:58;3.25;;;2.17;;
75437;SDS011;64015;49.392;15.582;2023-04-16T12:11:40;4.10;;;2.55;;
75437;SDS011;64015;49.392;15.582;2023-04-16T12:14:07;6.10;;;2.35;;
75437;SDS011;64015;49.392;15.582;2023-04-16T12:16:34;3.25;;;1.73;;
75437;SDS011;64015;49.392;15.582;2023-04-16T12:19:01;3.70;;;1.88;;
75437;SDS011;64015;49.392;15.582;2023-04-16T12:21:38;4.53;;;3.33;;
75437;SDS011;64015;49.392;15.582;2023-04-16T12:24:05;5.57;;;4.07;;
75437;SDS011;64015;49.392;15.582;2023-04-16T12:26:42;4.22;;;2.30;;
75437;SDS011;64015;49.392;15.582;2023-04-16T12:31:47;3.22;;;1.88;;
75437;SDS011;64015;49.392;15.582;2023-04-16T12:34:14;3.70;;;2.03;;
75437;SDS011;64015;49.392;15.582;2023-04-16T12:39:07;3.80;;;2.83;;
75437;SDS011;64015;49.392;15.582;2023-04-16T12:41:36;3.85;;;2.42;;
75437;SDS011;64015;49.392;15.582;2023-04-16T12:46:39;3.83;;;2.50;;
75437;SDS011;64015;49.392;15.582;2023-04-16T12:51:33;5.13;;;3.10;;
75437;SDS011;64015;49.392;15.582;2023-04-16T12:53:59;3.60;;;3.00;;
75437;SDS011;64015;49.392;15.582;2023-04-16T12:56:26;4.70;;;3.95;;
75437;SDS011;64015;49.392;15.582;2023-04-16T12:58:51;9.27;;;6.07;;
75437;SDS011;64015;49.392;15.582;2023-04-16T13:01:18;8.45;;;4.90;;
75437;SDS011;64015;49.392;15.582;2023-04-16T13:03:44;3.88;;;2.88;;
75437;SDS011;64015;49.392;15.582;2023-04-16T13:06:11;4.20;;;2.63;;
75437;SDS011;64015;49.392;15.582;2023-04-16T13:08:38;4.72;;;3.70;;
75437;SDS011;64015;49.392;15.582;2023-04-16T13:11:05;3.63;;;2.67;;
75437;SDS011;64015;49.392;15.582;2023-04-16T13:13:30;4.65;;;2.80;;
75437;SDS011;64015;49.392;15.582;2023-04-16T13:15:56;5.68;;;4.55;;
75437;SDS011;64015;49.392;15.582;2023-04-16T13:18:23;4.35;;;3.03;;
75437;SDS011;64015;49.392;15.582;2023-04-16T13:20:50;3.70;;;3.15;;
75437;SDS011;64015;49.392;15.582;2023-04-16T13:23:16;19.48;;;12.98;;
75437;SDS011;64015;49.392;15.582;2023-04-16T13:25:57;4.40;;;3.08;;
75437;SDS011;64015;49.392;15.582;2023-04-16T13:28:23;4.57;;;2.67;;
75437;SDS011;64015;49.392;15.582;2023-04-16T13:30:48;9.07;;;6.53;;
75437;SDS011;64015;49.392;15.582;2023-04-16T13:33:15;4.05;;;3.33;;
75437;SDS011;64015;49.392;15.582;2023-04-16T13:35:41;4.18;;;2.70;;
75437;SDS011;64015;49.392;15.582;2023-04-16T13:38:07;5.80;;;2.70;;
75437;SDS011;64015;49.392;15.582;2023-04-16T13:40:32;2.50;;;1.50;;
75437;SDS011;64015;49.392;15.582;2023-04-16T13:42:58;2.70;;;1.52;;
75437;SDS011;64015;49.392;15.582;2023-04-16T13:45:24;2.90;;;1.75;;
75437;SDS011;64015;49.392;15.582;2023-04-16T13:47:53;4.28;;;2.08;;
75437;SDS011;64015;49.392;15.582;2023-04-16T13:50:19;2.63;;;1.50;;
75437;SDS011;64015;49.392;15.582;2023-04-16T13:52:45;2.92;;;1.95;;
75437;SDS011;64015;49.392;15.582;2023-04-16T13:55:10;4.13;;;3.00;;
75437;SDS011;64015;49.392;15.582;2023-04-16T13:57:39;3.67;;;2.70;;
75437;SDS011;64015;49.392;15.582;2023-04-16T14:00:06;3.97;;;2.47;;
75437;SDS011;64015;49.392;15.582;2023-04-16T14:02:32;3.53;;;2.13;;
75437;SDS011;64015;49.392;15.582;2023-04-16T14:04:59;2.95;;;1.83;;
75437;SDS011;64015;49.392;15.582;2023-04-16T14:07:24;3.85;;;1.80;;
75437;SDS011;64015;49.392;15.582;2023-04-16T14:09:51;3.63;;;1.98;;
75437;SDS011;64015;49.392;15.582;2023-04-16T14:12:18;4.00;;;1.75;;
75437;SDS011;64015;49.392;15.582;2023-04-16T14:14:43;2.83;;;1.58;;
75437;SDS011;64015;49.392;15.582;2023-04-16T14:17:09;2.50;;;1.40;;
75437;SDS011;64015;49.392;15.582;2023-04-16T14:19:35;2.85;;;1.40;;
75437;SDS011;64015;49.392;15.582;2023-04-16T14:22:01;2.92;;;1.55;;
75437;SDS011;64015;49.392;15.582;2023-04-16T14:24:26;3.15;;;1.90;;
75437;SDS011;64015;49.392;15.582;2023-04-16T14:26:52;4.25;;;2.97;;
75437;SDS011;64015;49.392;15.582;2023-04-16T14:29:18;4.43;;;2.70;;
75437;SDS011;64015;49.392;15.582;2023-04-16T14:31:44;12.65;;;7.63;;
75437;SDS011;64015;49.392;15.582;2023-04-16T14:34:09;4.18;;;3.10;;
75437;SDS011;64015;49.392;15.582;2023-04-16T14:36:36;4.22;;;2.80;;
75437;SDS011;64015;49.392;15.582;2023-04-16T14:39:01;5.55;;;3.85;;
75437;SDS011;64015;49.392;15.582;2023-04-16T14:41:28;4.18;;;2.42;;
75437;SDS011;64015;49.392;15.582;2023-04-16T14:43:54;3.95;;;2.20;;
75437;SDS011;64015;49.392;15.582;2023-04-16T14:46:20;4.10;;;2.80;;
75437;SDS011;64015;49.392;15.582;2023-04-16T14:48:46;3.03;;;1.92;;
75437;SDS011;64015;49.392;15.582;2023-04-16T14:51:12;4.50;;;3.00;;
75437;SDS011;64015;49.392;15.582;2023-04-16T14:53:37;6.07;;;3.53;;
75437;SDS011;64015;49.392;15.582;2023-04-16T14:56:04;5.03;;;3.90;;